createdAt,value
2022-10-09T00:02:34.831Z,35.28
2022-10-09T00:05:36.988Z,34.88
2022-10-09T00:08:39.452Z,33.35
2022-10-09T00:11:41.425Z,32.97
2022-10-09T00:14:43.320Z,37.00
2022-10-09T00:17:45.271Z,31.15
2022-10-09T00:20:47.692Z,35.28
2022-10-09T00:23:50.267Z,33.45
2022-10-09T00:26:52.251Z,31.93
2022-10-09T00:29:54.325Z,32.53
2022-10-09T00:32:56.260Z,34.00
2022-10-09T00:35:58.244Z,33.78
2022-10-09T00:39:00.172Z,35.57
2022-10-09T00:42:02.967Z,34.60
2022-10-09T00:45:05.194Z,34.78
2022-10-09T00:48:07.519Z,32.00
2022-10-09T00:51:09.856Z,37.30
2022-10-09T00:54:14.276Z,34.55
2022-10-09T00:57:16.540Z,32.33
2022-10-09T01:00:18.550Z,29.90
2022-10-09T01:03:20.556Z,41.10
2022-10-09T01:06:31.331Z,35.97
2022-10-09T01:09:45.238Z,37.75
2022-10-09T01:13:05.648Z,31.80
2022-10-09T01:16:10.891Z,37.37
2022-10-09T01:19:33.113Z,38.63
2022-10-09T01:22:50.838Z,35.75
2022-10-09T01:26:09.102Z,36.53
2022-10-09T01:29:11.535Z,39.37
2022-10-09T01:32:15.484Z,37.30
2022-10-09T01:35:17.821Z,39.85
2022-10-09T01:38:20.977Z,37.97
2022-10-09T01:41:22.985Z,39.43
2022-10-09T01:44:26.583Z,34.65
2022-10-09T01:47:28.585Z,37.22
2022-10-09T01:50:34.303Z,41.90
2022-10-09T01:53:36.713Z,36.00
2022-10-09T01:56:39.472Z,35.83
2022-10-09T01:59:43.647Z,35.80
2022-10-09T02:02:46.561Z,37.03
2022-10-09T02:05:49.743Z,43.20
2022-10-09T02:08:53.170Z,44.88
2022-10-09T02:11:57.501Z,50.20
2022-10-09T02:14:59.485Z,49.17
2022-10-09T02:18:05.221Z,49.10
2022-10-09T02:21:10.672Z,47.95
2022-10-09T02:24:15.074Z,46.28
2022-10-09T02:27:19.092Z,43.42
2022-10-09T02:30:21.680Z,47.83
2022-10-09T02:33:27.150Z,45.75
2022-10-09T02:36:29.787Z,46.92
2022-10-09T02:39:31.784Z,47.88
2022-10-09T02:42:33.723Z,45.88
2022-10-09T02:45:35.681Z,46.58
2022-10-09T02:48:37.612Z,43.38
2022-10-09T02:51:39.569Z,49.73
2022-10-09T02:54:41.506Z,43.20
2022-10-09T02:57:43.486Z,44.33
2022-10-09T03:00:49.750Z,43.28
2022-10-09T03:03:52.147Z,44.53
2022-10-09T03:06:54.099Z,41.90
2022-10-09T03:09:57.262Z,47.13
2022-10-09T03:12:59.242Z,47.25
2022-10-09T03:16:10.959Z,48.03
2022-10-09T03:19:13.149Z,44.33
2022-10-09T03:22:15.047Z,42.53
2022-10-09T03:25:17.106Z,41.13
2022-10-09T03:28:19.056Z,43.03
2022-10-09T03:31:47.011Z,41.08
2022-10-09T03:34:43.885Z,42.55
2022-10-09T03:37:45.814Z,43.53
2022-10-09T03:40:47.756Z,39.67
2022-10-09T03:43:49.671Z,43.20
2022-10-09T03:46:52.714Z,41.65
2022-10-09T03:49:54.731Z,40.23
2022-10-09T03:52:56.720Z,41.13
2022-10-09T03:55:58.773Z,41.33
2022-10-09T03:59:00.920Z,44.15
2022-10-09T04:02:02.935Z,41.27
2022-10-09T04:05:05.122Z,42.20
2022-10-09T04:08:07.160Z,42.10
2022-10-09T04:11:09.109Z,41.33
2022-10-09T04:14:11.107Z,37.97
2022-10-09T04:17:13.159Z,42.35
2022-10-09T04:20:15.223Z,40.63
2022-10-09T04:23:18.405Z,45.70
2022-10-09T04:26:20.399Z,39.47
2022-10-09T04:29:22.515Z,43.38
2022-10-09T04:32:24.555Z,42.03
2022-10-09T04:35:26.483Z,41.83
2022-10-09T04:38:28.441Z,45.35
2022-10-09T04:41:33.513Z,43.90
2022-10-09T04:44:37.863Z,43.87
2022-10-09T04:47:40.482Z,54.80
2022-10-09T04:50:42.416Z,43.20
2022-10-09T04:53:44.631Z,44.05
2022-10-09T04:56:46.694Z,42.53
2022-10-09T04:59:48.677Z,46.55
2022-10-09T05:02:50.917Z,44.70
2022-10-09T05:05:53.108Z,42.58
2022-10-09T05:08:55.703Z,46.58
2022-10-09T05:11:57.713Z,45.00
2022-10-09T05:14:59.615Z,47.85
2022-10-09T05:18:01.576Z,44.33
2022-10-09T05:21:04.462Z,42.15
2022-10-09T05:24:10.219Z,42.95
2022-10-09T05:27:12.475Z,44.95
2022-10-09T05:30:14.479Z,45.57
2022-10-09T05:33:16.452Z,42.55
2022-10-09T05:36:18.682Z,36.20
2022-10-09T05:39:20.644Z,39.90
2022-10-09T05:42:22.573Z,39.90
2022-10-09T05:45:24.499Z,39.08
2022-10-09T05:48:26.440Z,38.25
2022-10-09T05:51:29.527Z,38.10
2022-10-09T05:54:31.571Z,37.88
2022-10-09T05:57:33.477Z,37.28
2022-10-09T06:00:35.418Z,39.13
2022-10-09T06:03:37.726Z,38.17
2022-10-09T06:06:39.863Z,39.47
2022-10-09T06:09:41.780Z,38.25
2022-10-09T06:12:43.751Z,37.97
2022-10-09T06:15:52.191Z,42.65
2022-10-09T06:18:54.812Z,46.08
2022-10-09T06:21:56.757Z,35.28
2022-10-09T06:25:00.029Z,39.63
2022-10-09T06:28:02.013Z,36.00
2022-10-09T06:31:14.349Z,36.25
2022-10-09T06:34:16.348Z,34.20
2022-10-09T06:37:18.291Z,34.33
2022-10-09T06:40:20.187Z,34.87
2022-10-09T06:43:22.148Z,33.47
2022-10-09T06:46:25.524Z,29.00
2022-10-09T06:49:27.508Z,26.52
2022-10-09T06:52:29.438Z,28.30
2022-10-09T06:55:31.860Z,27.27
2022-10-09T06:58:33.783Z,22.38
2022-10-09T07:01:35.848Z,20.23
2022-10-09T07:04:37.776Z,21.25
2022-10-09T07:07:40.328Z,21.27
2022-10-09T07:10:42.256Z,17.50
2022-10-09T07:13:44.269Z,18.30
2022-10-09T07:16:47.220Z,15.95
2022-10-09T07:19:49.231Z,16.02
2022-10-09T07:22:51.619Z,19.75
2022-10-09T07:25:53.765Z,14.37
2022-10-09T07:28:56.545Z,15.07
2022-10-09T07:31:58.487Z,14.45
2022-10-09T07:35:00.448Z,13.45
2022-10-09T07:38:02.460Z,14.40
2022-10-09T07:41:05.620Z,16.67
2022-10-09T07:44:07.597Z,17.15
2022-10-09T07:47:09.535Z,14.77
2022-10-09T07:50:11.483Z,12.18
2022-10-09T07:53:13.434Z,12.45
2022-10-09T07:56:16.263Z,16.27
2022-10-09T07:59:18.259Z,14.50
2022-10-09T08:02:20.379Z,13.65
2022-10-09T08:05:22.368Z,13.90
2022-10-09T08:08:24.466Z,14.30
2022-10-09T08:11:27.955Z,17.80
2022-10-09T08:14:30.073Z,11.70
2022-10-09T08:17:32.060Z,15.30
2022-10-09T08:20:34.108Z,17.23
2022-10-09T08:23:36.133Z,13.02
2022-10-09T08:26:38.305Z,16.00
2022-10-09T08:29:40.508Z,16.58
2022-10-09T08:32:42.501Z,13.63
2022-10-09T08:35:44.431Z,15.23
2022-10-09T08:38:47.857Z,18.63
2022-10-09T08:41:52.245Z,12.87
2022-10-09T08:44:54.500Z,16.20
2022-10-09T08:48:00.563Z,13.43
2022-10-09T08:51:04.024Z,15.02
2022-10-09T08:54:05.913Z,14.25
2022-10-09T08:57:12.819Z,13.70
2022-10-09T09:00:19.563Z,14.70
2022-10-09T09:03:24.312Z,14.60
2022-10-09T09:06:39.660Z,14.43
2022-10-09T09:09:50.449Z,17.58
2022-10-09T09:12:57.228Z,16.40
2022-10-09T09:16:10.255Z,14.05
2022-10-09T09:19:21.233Z,11.57
2022-10-09T09:22:24.685Z,15.32
2022-10-09T09:25:28.469Z,16.58
2022-10-09T09:28:31.639Z,14.50
2022-10-09T09:31:37.210Z,15.75
2022-10-09T09:34:40.792Z,12.93
2022-10-09T09:37:42.738Z,13.82
2022-10-09T09:40:47.167Z,13.93
2022-10-09T09:43:49.452Z,16.37
2022-10-09T09:46:51.469Z,14.10
2022-10-09T09:50:03.428Z,15.10
2022-10-09T09:53:07.641Z,14.05
2022-10-09T09:56:10.017Z,20.13
2022-10-09T09:59:30.908Z,15.43
2022-10-09T10:02:32.852Z,17.48
2022-10-09T10:05:36.540Z,13.82
2022-10-09T10:08:38.526Z,16.13
2022-10-09T10:11:59.615Z,17.98
2022-10-09T10:15:01.827Z,11.40
2022-10-09T10:18:08.302Z,15.20
2022-10-09T10:21:14.544Z,14.98
2022-10-09T10:24:20.261Z,10.75
2022-10-09T10:27:41.884Z,14.77
2022-10-09T10:30:43.882Z,17.60
2022-10-09T10:33:50.771Z,12.20
2022-10-09T10:37:02.498Z,10.82
2022-10-09T10:40:14.456Z,14.55
2022-10-09T10:43:22.556Z,11.55
2022-10-09T10:46:49.636Z,10.30
2022-10-09T10:49:51.625Z,10.40
2022-10-09T10:52:56.513Z,9.85
2022-10-09T10:56:04.902Z,13.43
2022-10-09T10:59:16.616Z,9.30
2022-10-09T11:02:32.946Z,9.03
2022-10-09T11:05:53.964Z,9.45
2022-10-09T11:09:01.636Z,11.95
2022-10-09T11:12:24.601Z,10.30
2022-10-09T11:15:37.674Z,9.68
2022-10-09T11:18:45.474Z,14.00
2022-10-09T11:21:55.433Z,9.45
2022-10-09T11:25:03.829Z,18.65
2022-10-09T11:28:14.925Z,16.83
2022-10-09T11:31:19.944Z,9.52
2022-10-09T11:34:30.529Z,11.87
2022-10-09T11:37:34.937Z,10.70
2022-10-09T11:40:39.875Z,12.35
2022-10-09T11:43:50.956Z,10.07
2022-10-09T11:46:52.887Z,11.57
2022-10-09T11:50:03.851Z,16.77
2022-10-09T11:53:09.097Z,10.93
2022-10-09T11:56:21.877Z,12.05
2022-10-09T11:59:28.674Z,9.18
2022-10-09T12:02:31.270Z,13.07
2022-10-09T12:05:40.320Z,12.23
2022-10-09T12:08:44.550Z,11.50
2022-10-09T12:12:06.209Z,10.82
2022-10-09T12:15:23.336Z,13.63
2022-10-09T12:18:27.711Z,11.15
2022-10-09T12:21:36.950Z,16.23
2022-10-09T12:24:40.435Z,16.95
2022-10-09T12:27:42.789Z,15.07
2022-10-09T12:30:47.809Z,12.45
2022-10-09T12:33:53.512Z,8.07
2022-10-09T12:37:10.090Z,9.37
2022-10-09T12:40:16.428Z,12.88
2022-10-09T12:43:19.315Z,13.25
2022-10-09T12:46:34.803Z,11.13
2022-10-09T12:49:36.822Z,10.02
2022-10-09T12:52:47.633Z,10.07
2022-10-09T12:56:00.684Z,8.85
2022-10-09T12:59:03.087Z,10.60
2022-10-09T13:02:05.439Z,11.90
2022-10-09T13:05:07.526Z,15.57
2022-10-09T13:08:35.644Z,11.77
2022-10-09T13:11:40.552Z,11.60
2022-10-09T13:14:51.944Z,10.82
2022-10-09T13:17:53.944Z,9.32
2022-10-09T13:21:02.070Z,9.95
2022-10-09T13:24:11.998Z,11.83
2022-10-09T13:27:14.724Z,9.27
2022-10-09T13:30:16.709Z,8.82
2022-10-09T13:33:18.685Z,11.43
2022-10-09T13:36:20.878Z,13.77
2022-10-09T13:39:22.806Z,9.70
2022-10-09T13:42:30.184Z,10.73
2022-10-09T13:45:32.133Z,9.05
2022-10-09T13:48:34.066Z,15.25
2022-10-09T13:51:36.274Z,12.05
2022-10-09T13:54:38.245Z,9.10
2022-10-09T13:57:40.206Z,11.63
2022-10-09T14:00:44.128Z,8.88
2022-10-09T14:03:46.179Z,8.15
2022-10-09T14:06:48.232Z,8.98
2022-10-09T14:09:50.197Z,11.03
2022-10-09T14:12:52.590Z,10.05
2022-10-09T14:15:54.712Z,10.38
2022-10-09T14:18:58.002Z,7.75
2022-10-09T14:22:00.073Z,10.80
2022-10-09T14:25:02.078Z,10.33
2022-10-09T14:28:04.115Z,9.15
2022-10-09T14:31:06.425Z,7.65
2022-10-09T14:34:08.358Z,8.93
2022-10-09T14:37:18.924Z,10.02
2022-10-09T14:40:32.005Z,8.83
2022-10-09T14:43:33.945Z,11.48
2022-10-09T14:46:37.827Z,9.63
2022-10-09T14:49:39.788Z,7.38
2022-10-09T14:52:42.325Z,4.25
2022-10-09T14:55:44.254Z,5.20
2022-10-09T14:58:46.685Z,7.15
2022-10-09T15:01:48.724Z,7.85
2022-10-09T15:04:50.919Z,4.78
2022-10-09T15:07:52.856Z,4.53
2022-10-09T15:10:55.150Z,4.80
2022-10-09T15:13:57.635Z,6.05
2022-10-09T15:16:59.617Z,5.13
2022-10-09T15:20:01.635Z,8.38
2022-10-09T15:23:03.554Z,5.95
2022-10-09T15:26:06.839Z,6.10
2022-10-09T15:29:08.975Z,4.47
2022-10-09T15:32:10.958Z,4.82
2022-10-09T15:35:12.963Z,5.72
2022-10-09T15:38:15.888Z,3.55
2022-10-09T15:41:28.035Z,5.10
2022-10-09T15:44:29.971Z,4.45
2022-10-09T15:47:49.848Z,5.60
2022-10-09T15:50:53.803Z,4.63
2022-10-09T15:53:56.200Z,10.48
2022-10-09T15:56:58.164Z,8.87
2022-10-09T16:00:00.101Z,10.15
2022-10-09T16:03:02.105Z,6.85
2022-10-09T16:06:05.397Z,5.25
2022-10-09T16:09:07.564Z,4.05
2022-10-09T16:12:09.652Z,6.07
2022-10-09T16:15:11.581Z,8.35
2022-10-09T16:18:14.447Z,6.13
2022-10-09T16:21:19.389Z,9.95
2022-10-09T16:24:21.334Z,9.25
2022-10-09T16:27:23.315Z,11.00
2022-10-09T16:30:25.715Z,9.55
2022-10-09T16:33:27.811Z,18.60
2022-10-09T16:36:29.816Z,56.13
2022-10-09T16:39:31.837Z,66.43
2022-10-09T16:42:33.854Z,53.57
2022-10-09T16:45:35.768Z,31.05
2022-10-09T16:48:37.736Z,19.02
2022-10-09T16:51:39.673Z,19.90
2022-10-09T16:54:41.994Z,16.38
2022-10-09T16:57:44.028Z,8.03
2022-10-09T17:00:45.996Z,12.40
2022-10-09T17:03:47.955Z,9.85
2022-10-09T17:06:51.239Z,10.68
2022-10-09T17:09:53.311Z,8.02
2022-10-09T17:12:55.297Z,11.43
2022-10-09T17:15:57.298Z,13.85
2022-10-09T17:18:59.513Z,19.40
2022-10-09T17:22:01.602Z,24.25
2022-10-09T17:25:03.724Z,17.80
2022-10-09T17:28:07.967Z,16.60
2022-10-09T17:31:11.609Z,16.65
2022-10-09T17:34:13.881Z,11.13
2022-10-09T17:37:15.828Z,11.15
2022-10-09T17:40:17.777Z,12.50
2022-10-09T17:43:19.721Z,15.73
2022-10-09T17:46:22.528Z,26.80
2022-10-09T17:49:24.475Z,24.50
2022-10-09T17:52:26.449Z,17.27
2022-10-09T17:55:28.476Z,21.15
2022-10-09T17:58:30.650Z,20.83
2022-10-09T18:01:33.125Z,19.80
2022-10-09T18:04:35.133Z,14.25
2022-10-09T18:07:37.038Z,16.45
2022-10-09T18:10:39.309Z,13.10
2022-10-09T18:13:41.924Z,12.93
2022-10-09T18:16:44.272Z,16.02
2022-10-09T18:19:46.200Z,11.35
2022-10-09T18:22:48.119Z,12.57
2022-10-09T18:25:50.108Z,18.67
2022-10-09T18:28:52.073Z,15.53
2022-10-09T18:31:55.806Z,16.48
2022-10-09T18:34:57.812Z,15.30
2022-10-09T18:37:59.812Z,20.63
2022-10-09T18:41:02.126Z,16.13
2022-10-09T18:44:04.807Z,15.80
2022-10-09T18:47:07.623Z,11.52
2022-10-09T18:50:10.828Z,16.52
2022-10-09T18:53:12.896Z,12.95
2022-10-09T18:56:16.565Z,10.67
2022-10-09T18:59:20.650Z,9.57
2022-10-09T19:02:26.349Z,12.20
2022-10-09T19:05:28.679Z,7.80
2022-10-09T19:08:30.669Z,8.90
2022-10-09T19:11:33.588Z,8.70
2022-10-09T19:14:35.936Z,9.73
2022-10-09T19:17:37.926Z,6.75
2022-10-09T19:20:39.895Z,16.58
2022-10-09T19:23:41.932Z,9.40
2022-10-09T19:26:43.973Z,11.50
2022-10-09T19:29:45.945Z,9.25
2022-10-09T19:32:48.113Z,10.27
2022-10-09T19:35:51.331Z,7.97
2022-10-09T19:38:53.510Z,6.33
2022-10-09T19:41:55.478Z,8.60
2022-10-09T19:44:58.119Z,7.88
2022-10-09T19:48:00.378Z,7.53
2022-10-09T19:51:06.785Z,7.63
2022-10-09T19:54:09.580Z,6.47
2022-10-09T19:57:11.681Z,8.23
2022-10-09T20:00:13.745Z,6.97
2022-10-09T20:03:15.927Z,5.85
2022-10-09T20:06:17.865Z,7.80
2022-10-09T20:09:20.889Z,8.43
2022-10-09T20:12:22.990Z,10.30
2022-10-09T20:15:25.051Z,8.63
2022-10-09T20:18:27.716Z,8.85
2022-10-09T20:21:30.587Z,7.60
2022-10-09T20:24:32.507Z,10.27
2022-10-09T20:27:34.442Z,9.00
2022-10-09T20:30:36.475Z,5.60
2022-10-09T20:33:38.716Z,4.53
2022-10-09T20:36:40.663Z,6.72
2022-10-09T20:39:42.609Z,4.40
2022-10-09T20:42:44.512Z,7.55
2022-10-09T20:45:46.451Z,8.33
2022-10-09T20:48:48.498Z,7.30
2022-10-09T20:51:51.206Z,5.10
2022-10-09T20:54:53.143Z,6.40
2022-10-09T20:57:55.201Z,4.23
2022-10-09T21:00:57.343Z,6.30
2022-10-09T21:03:59.426Z,5.63
2022-10-09T21:07:01.397Z,5.97
2022-10-09T21:10:03.427Z,4.27
2022-10-09T21:13:05.384Z,3.80
2022-10-09T21:16:08.854Z,6.65
2022-10-09T21:19:11.107Z,4.17
2022-10-09T21:22:13.108Z,5.05
2022-10-09T21:25:15.047Z,4.65
2022-10-09T21:28:17.826Z,4.60
2022-10-09T21:31:21.035Z,8.37
2022-10-09T21:34:22.935Z,6.38
2022-10-09T21:37:24.942Z,7.13
2022-10-09T21:40:26.885Z,7.10
2022-10-09T21:43:28.821Z,31.73
2022-10-09T21:46:30.932Z,18.33
2022-10-09T21:49:32.864Z,13.30
2022-10-09T21:52:34.932Z,9.45
2022-10-09T21:55:37.949Z,11.80
2022-10-09T21:58:40.578Z,7.78
2022-10-09T22:01:42.558Z,7.25
2022-10-09T22:04:44.555Z,10.95
2022-10-09T22:07:46.471Z,6.90
2022-10-09T22:10:49.735Z,9.35
2022-10-09T22:13:51.681Z,6.40
2022-10-09T22:16:53.613Z,5.60
2022-10-09T22:19:55.540Z,5.10
2022-10-09T22:22:57.483Z,4.13
2022-10-09T22:26:03.825Z,9.43
2022-10-09T22:29:05.737Z,7.47
2022-10-09T22:32:08.788Z,9.50
2022-10-09T22:35:10.777Z,9.00
2022-10-09T22:38:12.740Z,11.15
2022-10-09T22:41:16.081Z,6.27
2022-10-09T22:44:18.013Z,4.80
2022-10-09T22:47:20.002Z,6.43
2022-10-09T22:50:21.942Z,4.63
2022-10-09T22:53:24.008Z,7.70
2022-10-09T22:56:27.680Z,4.43
2022-10-09T22:59:29.692Z,5.40
2022-10-09T23:02:31.644Z,6.53
2022-10-09T23:05:33.637Z,6.88
2022-10-09T23:08:37.069Z,7.03
2022-10-09T23:11:39.032Z,5.90
2022-10-09T23:14:41.009Z,4.13
2022-10-09T23:17:43.182Z,4.25
2022-10-09T23:20:45.096Z,4.25
2022-10-09T23:23:47.612Z,4.37
2022-10-09T23:26:50.708Z,3.63
2022-10-09T23:29:52.653Z,3.92
2022-10-09T23:32:54.591Z,5.10
2022-10-09T23:35:56.686Z,7.00
2022-10-09T23:38:58.896Z,6.72
2022-10-09T23:42:00.852Z,4.30
2022-10-09T23:45:02.770Z,5.28
2022-10-09T23:48:04.699Z,6.40
2022-10-09T23:51:06.860Z,4.65
2022-10-09T23:54:08.976Z,5.38
2022-10-09T23:57:10.915Z,7.67
